createdAt,value
2022-12-05T00:02:15.931Z,2.60
2022-12-05T00:04:45.245Z,2.60
2022-12-05T00:07:13.991Z,2.60
2022-12-05T00:09:42.305Z,2.60
2022-12-05T00:12:12.273Z,2.60
2022-12-05T00:14:40.976Z,2.60
2022-12-05T00:17:11.213Z,2.60
2022-12-05T00:19:40.672Z,2.50
2022-12-05T00:22:09.313Z,2.50
2022-12-05T00:24:37.546Z,2.50
2022-12-05T00:27:06.402Z,2.50
2022-12-05T00:29:34.757Z,2.50
2022-12-05T00:32:03.440Z,2.50
2022-12-05T00:34:33.223Z,2.50
2022-12-05T00:37:01.839Z,2.50
2022-12-05T00:39:30.192Z,2.50
2022-12-05T00:41:58.850Z,2.60
2022-12-05T00:44:27.260Z,2.50
2022-12-05T00:46:56.196Z,2.50
2022-12-05T00:49:24.493Z,2.50
2022-12-05T00:51:54.593Z,2.50
2022-12-05T00:54:23.097Z,2.50
2022-12-05T00:56:52.604Z,2.50
2022-12-05T00:59:21.478Z,2.50
2022-12-05T01:01:52.015Z,2.50
2022-12-05T01:04:22.445Z,2.50
2022-12-05T01:06:55.017Z,2.50
2022-12-05T01:09:26.205Z,2.50
2022-12-05T01:11:55.209Z,2.60
2022-12-05T01:14:26.572Z,2.60
2022-12-05T01:16:56.990Z,2.60
2022-12-05T01:19:27.459Z,2.60
2022-12-05T01:21:57.149Z,2.60
2022-12-05T01:24:28.596Z,2.60
2022-12-05T01:26:57.975Z,2.60
2022-12-05T01:29:26.927Z,2.60
2022-12-05T01:31:55.989Z,2.60
2022-12-05T01:34:24.599Z,2.60
2022-12-05T01:36:53.599Z,2.60
2022-12-05T01:39:22.339Z,2.60
2022-12-05T01:41:52.488Z,2.60
2022-12-05T01:44:58.237Z,2.60
2022-12-05T01:47:30.178Z,2.60
2022-12-05T01:49:59.779Z,2.60
2022-12-05T01:52:32.249Z,2.60
2022-12-05T01:55:14.508Z,2.60
2022-12-05T01:57:45.027Z,2.50
2022-12-05T02:00:15.952Z,2.50
2022-12-05T02:02:50.675Z,2.50
2022-12-05T02:05:22.267Z,2.50
2022-12-05T02:07:51.302Z,2.50
2022-12-05T02:10:20.596Z,2.50
2022-12-05T02:12:52.666Z,2.50
2022-12-05T02:15:33.780Z,2.50
2022-12-05T02:18:16.271Z,2.50
2022-12-05T02:20:58.671Z,2.60
2022-12-05T02:24:04.149Z,2.50
2022-12-05T02:26:53.533Z,2.50
2022-12-05T02:29:53.090Z,2.50
2022-12-05T02:32:35.923Z,2.50
2022-12-05T02:35:13.643Z,2.50
2022-12-05T02:37:45.629Z,2.50
2022-12-05T02:40:22.655Z,2.50
2022-12-05T02:42:56.014Z,2.50
2022-12-05T02:45:29.139Z,2.50
2022-12-05T02:48:00.460Z,2.50
2022-12-05T02:50:33.497Z,2.60
2022-12-05T02:53:06.003Z,2.50
2022-12-05T02:55:35.992Z,2.50
2022-12-05T02:58:08.755Z,2.50
2022-12-05T03:00:40.439Z,2.50
2022-12-05T03:03:15.727Z,2.50
2022-12-05T03:05:50.106Z,2.50
2022-12-05T03:08:23.399Z,2.50
2022-12-05T03:10:54.267Z,2.50
2022-12-05T03:13:29.537Z,2.50
2022-12-05T03:16:04.159Z,2.50
2022-12-05T03:18:39.168Z,2.50
2022-12-05T03:21:15.054Z,2.50
2022-12-05T03:23:47.954Z,2.40
2022-12-05T03:26:24.534Z,2.50
2022-12-05T03:28:59.087Z,2.50
2022-12-05T03:31:36.830Z,2.50
2022-12-05T03:34:09.857Z,2.50
2022-12-05T03:36:41.563Z,2.50
2022-12-05T03:39:17.722Z,2.50
2022-12-05T03:41:54.116Z,2.40
2022-12-05T03:44:25.360Z,2.50
2022-12-05T03:46:59.289Z,2.40
2022-12-05T03:49:34.505Z,2.40
2022-12-05T03:52:11.212Z,2.40
2022-12-05T03:54:42.387Z,2.40
2022-12-05T03:57:16.389Z,2.50
2022-12-05T03:59:51.674Z,2.40
2022-12-05T04:02:27.203Z,2.50
2022-12-05T04:05:02.130Z,2.50
2022-12-05T04:07:32.974Z,2.50
2022-12-05T04:10:04.550Z,2.50
2022-12-05T04:12:37.227Z,2.50
2022-12-05T04:15:10.634Z,2.50
2022-12-05T04:17:51.894Z,2.50
2022-12-05T04:20:46.322Z,2.50
2022-12-05T04:23:15.411Z,2.50
2022-12-05T04:25:52.744Z,2.50
2022-12-05T04:28:29.785Z,2.50
2022-12-05T04:31:06.318Z,2.50
2022-12-05T04:33:43.018Z,2.50
2022-12-05T04:36:17.408Z,2.50
2022-12-05T04:38:51.685Z,2.50
2022-12-05T04:41:25.162Z,2.50
2022-12-05T04:43:57.084Z,2.50
2022-12-05T04:46:26.025Z,2.50
2022-12-05T04:48:59.479Z,2.50
2022-12-05T04:51:34.759Z,2.50
2022-12-05T04:54:09.852Z,2.50
2022-12-05T04:56:40.451Z,2.50
2022-12-05T04:59:09.069Z,2.50
2022-12-05T05:01:41.202Z,2.60
2022-12-05T05:04:13.944Z,2.60
2022-12-05T05:06:44.522Z,2.60
2022-12-05T05:09:13.120Z,2.50
2022-12-05T05:11:41.726Z,2.60
2022-12-05T05:14:10.325Z,2.40
2022-12-05T05:16:41.466Z,2.50
2022-12-05T05:19:12.154Z,2.50
2022-12-05T05:21:42.430Z,2.50
2022-12-05T05:24:13.876Z,2.50
2022-12-05T05:26:43.649Z,2.50
2022-12-05T05:29:13.210Z,2.50
2022-12-05T05:31:42.517Z,2.50
2022-12-05T05:34:11.750Z,2.50
2022-12-05T05:36:40.519Z,2.50
2022-12-05T05:39:15.436Z,2.50
2022-12-05T05:41:44.830Z,2.50
2022-12-05T05:44:13.457Z,2.60
2022-12-05T05:46:41.985Z,2.50
2022-12-05T05:49:11.782Z,2.60
2022-12-05T05:51:40.283Z,2.50
2022-12-05T05:54:08.920Z,2.50
2022-12-05T05:56:40.633Z,2.40
2022-12-05T05:59:09.175Z,2.50
2022-12-05T06:01:37.503Z,2.50
2022-12-05T06:04:07.826Z,2.50
2022-12-05T06:06:36.632Z,2.50
2022-12-05T06:09:08.149Z,2.50
2022-12-05T06:11:36.481Z,2.50
2022-12-05T06:14:06.911Z,2.50
2022-12-05T06:16:35.300Z,2.50
2022-12-05T06:19:04.115Z,2.50
2022-12-05T06:21:32.565Z,2.50
2022-12-05T06:24:01.238Z,2.40
2022-12-05T06:26:29.533Z,2.40
2022-12-05T06:28:58.501Z,2.40
2022-12-05T06:31:31.689Z,2.40
2022-12-05T06:34:03.190Z,2.40
2022-12-05T06:36:32.307Z,2.40
2022-12-05T06:39:01.898Z,2.40
2022-12-05T06:41:30.225Z,2.40
2022-12-05T06:44:02.288Z,2.40
2022-12-05T06:46:32.574Z,2.40
2022-12-05T06:49:01.510Z,2.50
2022-12-05T06:51:29.985Z,2.40
2022-12-05T06:53:58.658Z,2.40
2022-12-05T06:56:27.272Z,2.40
2022-12-05T06:58:56.368Z,2.40
2022-12-05T07:01:45.164Z,2.50
2022-12-05T07:04:17.288Z,2.50
2022-12-05T07:06:51.157Z,2.50
2022-12-05T07:09:21.554Z,2.50
2022-12-05T07:11:50.467Z,2.50
2022-12-05T07:14:45.984Z,2.50
2022-12-05T07:17:08.600Z,2.50
2022-12-05T07:19:38.755Z,2.50
2022-12-05T07:22:13.705Z,2.50
2022-12-05T07:24:44.652Z,2.50
2022-12-05T07:27:13.498Z,2.50
2022-12-05T07:29:42.236Z,2.50
2022-12-05T07:32:10.984Z,2.50
2022-12-05T07:34:42.348Z,2.50
2022-12-05T07:37:11.014Z,2.40
2022-12-05T07:39:39.841Z,2.40
2022-12-05T07:42:08.120Z,2.50
2022-12-05T07:44:37.167Z,2.40
2022-12-05T07:47:05.727Z,2.40
2022-12-05T07:49:34.489Z,2.50
2022-12-05T07:52:04.533Z,2.50
2022-12-05T07:54:34.039Z,2.50
2022-12-05T07:57:02.577Z,2.50
2022-12-05T07:59:31.214Z,2.50
2022-12-05T08:01:59.864Z,2.50
2022-12-05T08:04:28.550Z,2.50
2022-12-05T08:06:57.191Z,2.40
2022-12-05T08:09:27.751Z,2.50
2022-12-05T08:11:56.232Z,2.50
2022-12-05T08:14:24.906Z,2.50
2022-12-05T08:16:53.662Z,2.50
2022-12-05T08:19:22.629Z,2.50
2022-12-05T08:21:52.455Z,2.50
2022-12-05T08:24:21.111Z,2.50
2022-12-05T08:26:51.261Z,2.50
2022-12-05T08:29:23.131Z,2.50
2022-12-05T08:31:53.043Z,2.50
2022-12-05T08:34:22.298Z,2.50
2022-12-05T08:36:51.177Z,2.50
2022-12-05T08:39:21.144Z,2.60
2022-12-05T08:41:51.057Z,2.60
2022-12-05T08:44:20.381Z,2.60
2022-12-05T08:46:50.551Z,2.60
2022-12-05T08:49:20.458Z,2.60
2022-12-05T08:51:48.941Z,2.60
2022-12-05T08:54:17.775Z,2.60
2022-12-05T08:56:46.535Z,2.60
2022-12-05T08:59:16.845Z,2.60
2022-12-05T09:01:45.318Z,2.60
2022-12-05T09:04:14.203Z,2.70
2022-12-05T09:06:43.497Z,2.60
2022-12-05T09:09:13.199Z,2.60
2022-12-05T09:11:46.912Z,2.70
2022-12-05T09:14:18.125Z,2.60
2022-12-05T09:16:47.995Z,2.70
2022-12-05T09:19:20.690Z,2.70
2022-12-05T09:21:49.539Z,2.70
2022-12-05T09:24:18.967Z,2.70
2022-12-05T09:26:48.032Z,2.80
2022-12-05T09:29:18.999Z,2.80
2022-12-05T09:31:51.618Z,2.80
2022-12-05T09:34:20.604Z,2.80
2022-12-05T09:37:05.715Z,2.80
2022-12-05T09:39:41.890Z,2.80
2022-12-05T09:42:31.156Z,2.80
2022-12-05T09:45:14.553Z,2.80
2022-12-05T09:47:59.775Z,2.90
2022-12-05T09:50:30.822Z,2.80
2022-12-05T09:53:14.567Z,2.80
2022-12-05T09:55:50.698Z,2.90
2022-12-05T09:58:34.669Z,2.90
2022-12-05T10:01:16.301Z,2.90
2022-12-05T10:03:49.844Z,2.90
2022-12-05T10:06:25.082Z,2.90
2022-12-05T10:09:08.871Z,2.90
2022-12-05T10:11:44.527Z,2.90
2022-12-05T10:14:29.714Z,2.90
2022-12-05T10:17:04.579Z,2.90
2022-12-05T10:19:39.519Z,2.90
2022-12-05T10:22:20.258Z,2.90
2022-12-05T10:24:53.136Z,2.90
2022-12-05T10:27:28.458Z,2.90
2022-12-05T10:30:03.185Z,2.90
2022-12-05T10:32:38.238Z,2.90
2022-12-05T10:35:17.749Z,2.90
2022-12-05T10:37:50.028Z,2.90
2022-12-05T10:40:18.841Z,2.90
2022-12-05T10:42:49.859Z,2.90
2022-12-05T10:45:21.534Z,2.90
2022-12-05T10:47:56.181Z,2.90
2022-12-05T10:50:29.293Z,2.90
2022-12-05T10:52:59.797Z,2.90
2022-12-05T10:55:32.916Z,2.90
2022-12-05T10:58:17.248Z,2.90
2022-12-05T11:00:49.204Z,2.90
2022-12-05T11:03:29.349Z,2.90
2022-12-05T11:06:00.961Z,2.90
2022-12-05T11:09:02.371Z,2.90
2022-12-05T11:11:23.459Z,2.90
2022-12-05T11:13:57.561Z,3.00
2022-12-05T11:16:29.883Z,3.00
2022-12-05T11:19:21.013Z,3.00
2022-12-05T11:21:50.145Z,3.00
2022-12-05T11:24:23.741Z,3.00
2022-12-05T11:26:52.198Z,3.10
2022-12-05T11:29:36.201Z,3.10
2022-12-05T11:32:06.798Z,3.10
2022-12-05T11:34:44.000Z,3.30
2022-12-05T11:37:15.830Z,3.20
2022-12-05T11:39:44.645Z,3.20
2022-12-05T11:42:24.979Z,3.20
2022-12-05T11:45:12.727Z,3.20
2022-12-05T11:48:04.280Z,3.20
2022-12-05T11:50:47.169Z,3.20
2022-12-05T11:53:35.500Z,3.30
2022-12-05T11:56:13.967Z,3.30
2022-12-05T11:59:02.200Z,3.30
2022-12-05T12:01:41.578Z,3.30
2022-12-05T12:04:44.111Z,3.40
2022-12-05T12:07:29.156Z,3.40
2022-12-05T12:10:10.368Z,3.40
2022-12-05T12:12:51.821Z,3.40
2022-12-05T12:15:52.759Z,3.40
2022-12-05T12:18:41.696Z,3.40
2022-12-05T12:21:18.720Z,3.40
2022-12-05T12:24:04.019Z,3.40
2022-12-05T12:26:46.018Z,3.40
2022-12-05T12:29:25.756Z,3.40
2022-12-05T12:32:04.413Z,3.40
2022-12-05T12:34:49.754Z,3.40
2022-12-05T12:37:25.788Z,3.30
2022-12-05T12:40:01.979Z,3.30
2022-12-05T12:42:40.455Z,3.30
2022-12-05T12:45:47.984Z,3.30
2022-12-05T12:48:30.490Z,3.30
2022-12-05T12:51:02.629Z,3.30
2022-12-05T12:54:07.589Z,3.30
2022-12-05T12:56:49.290Z,3.30
2022-12-05T12:59:44.341Z,3.30
2022-12-05T13:02:19.830Z,3.30
2022-12-05T13:04:54.242Z,3.30
2022-12-05T13:07:29.569Z,3.30
2022-12-05T13:10:01.329Z,3.20
2022-12-05T13:12:36.087Z,3.20
2022-12-05T13:15:11.979Z,3.20
2022-12-05T13:17:44.219Z,3.20
2022-12-05T13:20:17.066Z,3.20
2022-12-05T13:22:46.974Z,3.10
2022-12-05T13:25:16.893Z,3.20
2022-12-05T13:28:00.106Z,3.20
2022-12-05T13:30:28.961Z,3.20
2022-12-05T13:32:59.369Z,3.10
2022-12-05T13:35:50.373Z,3.10
2022-12-05T13:38:41.854Z,3.20
2022-12-05T13:41:27.907Z,3.10
2022-12-05T13:44:06.373Z,3.10
2022-12-05T13:46:39.877Z,3.10
2022-12-05T13:49:19.376Z,3.10
2022-12-05T13:51:48.126Z,3.10
2022-12-05T13:54:19.759Z,3.10
2022-12-05T13:56:52.407Z,3.10
2022-12-05T14:00:06.023Z,3.10
2022-12-05T14:02:56.297Z,3.10
2022-12-05T14:05:44.713Z,3.10
2022-12-05T14:08:46.805Z,3.10
2022-12-05T14:11:15.869Z,3.10
2022-12-05T14:13:46.300Z,3.10
2022-12-05T14:16:50.611Z,3.10
2022-12-05T14:19:54.325Z,3.10
2022-12-05T14:22:53.292Z,3.10
2022-12-05T14:25:34.117Z,3.00
2022-12-05T14:28:13.389Z,3.00
2022-12-05T14:30:52.572Z,3.00
2022-12-05T14:33:24.307Z,3.00
2022-12-05T14:35:54.459Z,3.00
2022-12-05T14:38:28.711Z,2.90
2022-12-05T14:41:06.177Z,3.00
2022-12-05T14:43:36.051Z,3.00
2022-12-05T14:46:08.136Z,3.10
2022-12-05T14:48:47.310Z,3.20
2022-12-05T14:51:56.809Z,3.20
2022-12-05T14:54:27.489Z,3.30
2022-12-05T14:57:08.154Z,3.40
2022-12-05T14:59:49.677Z,3.50
2022-12-05T15:02:23.290Z,3.60
2022-12-05T15:04:59.010Z,3.70
2022-12-05T15:07:33.696Z,3.80
2022-12-05T15:10:05.999Z,3.80
2022-12-05T15:12:40.940Z,3.80
2022-12-05T15:15:17.450Z,3.90
2022-12-05T15:17:50.202Z,3.80
2022-12-05T15:20:40.265Z,3.90
2022-12-05T15:23:40.096Z,3.90
2022-12-05T15:29:12.798Z,3.90
2022-12-05T15:31:47.289Z,3.90
2022-12-05T15:34:20.064Z,3.90
2022-12-05T15:36:53.308Z,3.90
2022-12-05T15:39:25.879Z,3.90
2022-12-05T15:41:56.227Z,4.00
2022-12-05T15:44:32.922Z,4.00
2022-12-05T15:47:06.581Z,3.90
2022-12-05T15:49:34.991Z,3.90
2022-12-05T15:52:18.159Z,3.90
2022-12-05T15:54:47.191Z,3.90
2022-12-05T15:57:20.608Z,3.90
2022-12-05T15:59:51.988Z,3.90
2022-12-05T16:02:27.408Z,3.90
2022-12-05T16:04:59.525Z,3.90
2022-12-05T16:07:31.862Z,3.80
2022-12-05T16:10:02.248Z,3.80
2022-12-05T16:12:36.896Z,3.80
2022-12-05T16:15:11.810Z,3.80
2022-12-05T16:17:43.590Z,3.80
2022-12-05T16:20:21.852Z,3.80
2022-12-05T16:22:54.501Z,3.80
2022-12-05T16:25:25.950Z,3.80
2022-12-05T16:28:05.132Z,3.80
2022-12-05T16:30:33.614Z,3.80
2022-12-05T16:33:05.493Z,3.70
2022-12-05T16:35:37.239Z,3.80
2022-12-05T16:38:16.151Z,3.80
2022-12-05T16:40:54.588Z,3.80
2022-12-05T16:43:30.522Z,3.80
2022-12-05T16:46:01.055Z,3.80
2022-12-05T16:48:31.284Z,3.70
2022-12-05T16:51:19.996Z,3.70
2022-12-05T16:53:51.362Z,3.70
2022-12-05T16:56:24.168Z,3.70
2022-12-05T16:58:53.124Z,3.80
2022-12-05T17:01:24.607Z,3.70
2022-12-05T17:03:53.958Z,3.70
2022-12-05T17:06:24.278Z,3.70
2022-12-05T17:08:55.578Z,3.70
2022-12-05T17:11:27.133Z,3.60
2022-12-05T17:13:57.559Z,3.60
2022-12-05T17:16:26.973Z,3.60
2022-12-05T17:18:55.754Z,3.60
2022-12-05T17:21:26.680Z,3.60
2022-12-05T17:23:57.115Z,3.60
2022-12-05T17:26:25.933Z,3.60
2022-12-05T17:28:54.794Z,3.60
2022-12-05T17:31:25.599Z,3.60
2022-12-05T17:33:55.370Z,3.50
2022-12-05T17:36:37.091Z,3.50
2022-12-05T17:39:08.863Z,3.50
2022-12-05T17:42:25.842Z,3.50
2022-12-05T17:44:55.869Z,3.50
2022-12-05T17:47:24.433Z,3.40
2022-12-05T17:49:53.202Z,3.40
2022-12-05T17:52:22.621Z,3.40
2022-12-05T17:55:28.585Z,3.40
2022-12-05T17:57:58.405Z,3.40
2022-12-05T18:00:27.155Z,3.50
2022-12-05T18:02:55.568Z,3.40
2022-12-05T18:05:24.700Z,3.50
2022-12-05T18:07:53.197Z,3.40
2022-12-05T18:10:23.546Z,3.40
2022-12-05T18:12:52.241Z,3.40
2022-12-05T18:15:22.412Z,3.40
2022-12-05T18:17:50.744Z,3.50
2022-12-05T18:20:19.569Z,3.40
2022-12-05T18:22:48.754Z,3.40
2022-12-05T18:25:17.842Z,3.40
2022-12-05T18:27:46.229Z,3.40
2022-12-05T18:30:15.352Z,3.40
2022-12-05T18:32:45.199Z,3.50
2022-12-05T18:35:13.917Z,3.40
2022-12-05T18:37:42.347Z,3.40
2022-12-05T18:40:14.370Z,3.50
2022-12-05T18:42:42.911Z,3.40
2022-12-05T18:45:12.354Z,3.50
2022-12-05T18:47:40.903Z,3.50
2022-12-05T18:50:11.664Z,3.50
2022-12-05T18:52:40.049Z,3.50
2022-12-05T18:55:17.151Z,3.50
2022-12-05T18:57:46.299Z,3.50
2022-12-05T19:00:16.171Z,3.50
2022-12-05T19:02:44.625Z,3.50
2022-12-05T19:05:14.819Z,3.50
2022-12-05T19:07:43.232Z,3.50
2022-12-05T19:10:12.125Z,3.50
2022-12-05T19:12:40.996Z,3.50
2022-12-05T19:15:10.387Z,3.50
2022-12-05T19:17:39.002Z,3.40
2022-12-05T19:20:08.995Z,3.40
2022-12-05T19:22:39.094Z,3.50
2022-12-05T19:25:08.883Z,3.40
2022-12-05T19:27:37.128Z,3.50
2022-12-05T19:30:10.100Z,3.40
2022-12-05T19:32:40.657Z,3.50
2022-12-05T19:35:10.671Z,3.50
2022-12-05T19:37:40.264Z,3.50
2022-12-05T19:40:10.343Z,3.50
2022-12-05T19:42:38.723Z,3.50
2022-12-05T19:45:10.413Z,3.50
2022-12-05T19:47:41.861Z,3.50
2022-12-05T19:50:10.928Z,3.50
2022-12-05T19:52:40.603Z,3.50
2022-12-05T19:55:09.967Z,3.50
2022-12-05T19:57:38.572Z,3.50
2022-12-05T20:00:10.100Z,3.50
2022-12-05T20:02:40.452Z,3.50
2022-12-05T20:05:09.838Z,3.60
2022-12-05T20:07:38.356Z,3.50
2022-12-05T20:10:09.032Z,3.50
2022-12-05T20:12:37.398Z,3.50
2022-12-05T20:15:06.831Z,3.50
2022-12-05T20:17:35.316Z,3.50
2022-12-05T20:20:04.283Z,3.50
2022-12-05T20:22:32.982Z,3.60
2022-12-05T20:25:02.020Z,3.50
2022-12-05T20:27:34.146Z,3.50
2022-12-05T20:30:02.740Z,3.50
2022-12-05T20:32:31.112Z,3.50
2022-12-05T20:34:59.834Z,3.50
2022-12-05T20:37:31.178Z,3.50
2022-12-05T20:40:02.721Z,3.50
2022-12-05T20:42:32.637Z,3.60
2022-12-05T20:45:01.534Z,3.60
2022-12-05T20:47:32.690Z,3.50
2022-12-05T20:50:01.517Z,3.50
2022-12-05T20:52:30.958Z,3.50
2022-12-05T20:54:59.489Z,3.50
2022-12-05T20:57:27.920Z,3.50
2022-12-05T20:59:58.186Z,3.60
2022-12-05T21:02:26.948Z,3.60
2022-12-05T21:04:56.176Z,3.60
2022-12-05T21:07:24.450Z,3.60
2022-12-05T21:09:53.035Z,3.70
2022-12-05T21:12:21.715Z,3.70
2022-12-05T21:14:50.853Z,3.60
2022-12-05T21:17:20.653Z,3.60
2022-12-05T21:19:49.279Z,3.60
2022-12-05T21:22:17.774Z,3.70
2022-12-05T21:24:46.445Z,3.60
2022-12-05T21:27:14.934Z,3.60
2022-12-05T21:29:44.407Z,3.70
2022-12-05T21:32:13.059Z,3.60
2022-12-05T21:34:43.247Z,3.70
2022-12-05T21:37:11.644Z,3.60
2022-12-05T21:39:40.642Z,3.60
2022-12-05T21:42:08.992Z,3.60
2022-12-05T21:44:37.492Z,3.60
2022-12-05T21:47:05.825Z,3.60
2022-12-05T21:49:34.571Z,3.70
2022-12-05T21:52:04.709Z,3.70
2022-12-05T21:54:33.241Z,3.70
2022-12-05T21:57:01.662Z,3.70
2022-12-05T21:59:32.655Z,3.60
2022-12-05T22:02:01.148Z,3.70
2022-12-05T22:04:29.811Z,3.60
2022-12-05T22:06:58.130Z,3.70
2022-12-05T22:09:28.129Z,3.70
2022-12-05T22:11:56.590Z,3.70
2022-12-05T22:14:25.174Z,3.70
2022-12-05T22:16:53.751Z,3.70
2022-12-05T22:19:22.379Z,3.60
2022-12-05T22:21:50.724Z,3.70
2022-12-05T22:24:19.468Z,3.70
2022-12-05T22:26:49.074Z,3.70
2022-12-05T22:29:17.974Z,3.70
2022-12-05T22:31:46.449Z,3.70
2022-12-05T22:34:15.572Z,3.70
2022-12-05T22:36:43.866Z,3.70
2022-12-05T22:39:14.704Z,3.70
2022-12-05T22:41:43.007Z,3.70
2022-12-05T22:44:13.048Z,3.70
2022-12-05T22:46:41.676Z,3.80
2022-12-05T22:49:11.648Z,3.80
2022-12-05T22:51:40.033Z,3.80
2022-12-05T22:54:08.809Z,3.80
2022-12-05T22:56:37.094Z,3.80
2022-12-05T22:59:08.204Z,3.80
2022-12-05T23:01:40.560Z,3.80
2022-12-05T23:04:11.729Z,3.80
2022-12-05T23:06:41.146Z,3.80
2022-12-05T23:09:11.752Z,3.80
2022-12-05T23:11:40.111Z,3.80
2022-12-05T23:14:09.097Z,3.90
2022-12-05T23:16:38.990Z,3.70
2022-12-05T23:19:08.295Z,3.80
2022-12-05T23:21:38.434Z,3.80
2022-12-05T23:24:09.286Z,3.80
2022-12-05T23:26:39.805Z,3.80
2022-12-05T23:29:08.843Z,3.80
2022-12-05T23:31:37.349Z,3.80
2022-12-05T23:34:07.631Z,3.80
2022-12-05T23:36:36.721Z,3.80
2022-12-05T23:39:06.317Z,3.80
2022-12-05T23:41:34.902Z,3.80
2022-12-05T23:44:03.587Z,3.80
2022-12-05T23:46:32.049Z,3.80
2022-12-05T23:49:00.829Z,3.80
2022-12-05T23:51:31.781Z,3.80
2022-12-05T23:54:02.604Z,3.80
2022-12-05T23:56:33.407Z,3.80
2022-12-05T23:59:02.982Z,3.80
